sensor_id;sensor_type;location;lat;lon;timestamp;P1;durP1;ratioP1;P2;durP2;ratioP2
75885;SDS011;64561;44.018;10.144;2023-12-28T00:01:00;10.07;;;6.68;;
75885;SDS011;64561;44.018;10.144;2023-12-28T00:03:28;13.23;;;8.60;;
75885;SDS011;64561;44.018;10.144;2023-12-28T00:05:56;14.18;;;9.10;;
75885;SDS011;64561;44.018;10.144;2023-12-28T00:08:24;18.08;;;11.55;;
75885;SDS011;64561;44.018;10.144;2023-12-28T00:10:51;15.52;;;10.77;;
75885;SDS011;64561;44.018;10.144;2023-12-28T00:13:18;15.50;;;10.65;;
75885;SDS011;64561;44.018;10.144;2023-12-28T00:15:46;17.15;;;12.25;;
75885;SDS011;64561;44.018;10.144;2023-12-28T00:18:13;17.98;;;12.45;;
75885;SDS011;64561;44.018;10.144;2023-12-28T00:20:41;21.38;;;15.85;;
75885;SDS011;64561;44.018;10.144;2023-12-28T00:23:08;19.00;;;10.98;;
75885;SDS011;64561;44.018;10.144;2023-12-28T00:25:35;15.77;;;10.50;;
75885;SDS011;64561;44.018;10.144;2023-12-28T00:28:03;14.25;;;10.40;;
75885;SDS011;64561;44.018;10.144;2023-12-28T00:30:31;16.33;;;10.90;;
75885;SDS011;64561;44.018;10.144;2023-12-28T00:32:59;12.38;;;8.55;;
75885;SDS011;64561;44.018;10.144;2023-12-28T00:35:26;14.68;;;7.63;;
75885;SDS011;64561;44.018;10.144;2023-12-28T00:37:56;13.10;;;8.13;;
75885;SDS011;64561;44.018;10.144;2023-12-28T00:40:26;14.07;;;8.32;;
75885;SDS011;64561;44.018;10.144;2023-12-28T00:42:53;12.27;;;7.97;;
75885;SDS011;64561;44.018;10.144;2023-12-28T00:45:20;14.32;;;8.32;;
75885;SDS011;64561;44.018;10.144;2023-12-28T00:47:47;11.77;;;6.95;;
75885;SDS011;64561;44.018;10.144;2023-12-28T00:50:15;10.10;;;6.60;;
75885;SDS011;64561;44.018;10.144;2023-12-28T00:52:42;11.55;;;6.50;;
75885;SDS011;64561;44.018;10.144;2023-12-28T00:55:10;12.30;;;6.53;;
75885;SDS011;64561;44.018;10.144;2023-12-28T00:57:37;13.43;;;8.20;;
75885;SDS011;64561;44.018;10.144;2023-12-28T01:00:05;13.15;;;7.20;;
75885;SDS011;64561;44.018;10.144;2023-12-28T01:02:33;12.45;;;8.73;;
75885;SDS011;64561;44.018;10.144;2023-12-28T01:05:02;12.02;;;8.00;;
75885;SDS011;64561;44.018;10.144;2023-12-28T01:07:30;10.57;;;7.22;;
75885;SDS011;64561;44.018;10.144;2023-12-28T01:09:59;11.35;;;6.45;;
75885;SDS011;64561;44.018;10.144;2023-12-28T01:12:29;11.10;;;6.65;;
75885;SDS011;64561;44.018;10.144;2023-12-28T01:14:59;11.70;;;6.78;;
75885;SDS011;64561;44.018;10.144;2023-12-28T01:17:27;13.05;;;7.20;;
75885;SDS011;64561;44.018;10.144;2023-12-28T01:19:56;12.85;;;7.57;;
75885;SDS011;64561;44.018;10.144;2023-12-28T01:22:23;12.13;;;7.75;;
75885;SDS011;64561;44.018;10.144;2023-12-28T01:24:51;13.82;;;8.40;;
75885;SDS011;64561;44.018;10.144;2023-12-28T01:27:19;12.48;;;8.40;;
75885;SDS011;64561;44.018;10.144;2023-12-28T01:29:46;10.70;;;7.07;;
75885;SDS011;64561;44.018;10.144;2023-12-28T01:32:13;14.27;;;7.47;;
75885;SDS011;64561;44.018;10.144;2023-12-28T01:34:42;15.18;;;8.77;;
75885;SDS011;64561;44.018;10.144;2023-12-28T01:37:09;13.65;;;8.70;;
75885;SDS011;64561;44.018;10.144;2023-12-28T01:39:37;12.93;;;8.02;;
75885;SDS011;64561;44.018;10.144;2023-12-28T01:42:04;20.58;;;12.32;;
75885;SDS011;64561;44.018;10.144;2023-12-28T01:44:31;16.02;;;11.43;;
75885;SDS011;64561;44.018;10.144;2023-12-28T01:47:00;17.42;;;10.15;;
75885;SDS011;64561;44.018;10.144;2023-12-28T01:49:28;14.38;;;9.93;;
75885;SDS011;64561;44.018;10.144;2023-12-28T01:51:56;14.80;;;9.18;;
75885;SDS011;64561;44.018;10.144;2023-12-28T01:54:24;14.13;;;9.43;;
75885;SDS011;64561;44.018;10.144;2023-12-28T01:56:51;13.13;;;8.13;;
75885;SDS011;64561;44.018;10.144;2023-12-28T01:59:18;11.10;;;7.35;;
75885;SDS011;64561;44.018;10.144;2023-12-28T02:01:46;10.25;;;6.80;;
75885;SDS011;64561;44.018;10.144;2023-12-28T02:04:14;11.68;;;7.32;;
75885;SDS011;64561;44.018;10.144;2023-12-28T02:06:43;13.15;;;7.18;;
75885;SDS011;64561;44.018;10.144;2023-12-28T02:09:10;8.63;;;6.57;;
75885;SDS011;64561;44.018;10.144;2023-12-28T02:11:37;11.18;;;6.28;;
75885;SDS011;64561;44.018;10.144;2023-12-28T02:14:05;10.82;;;6.45;;
75885;SDS011;64561;44.018;10.144;2023-12-28T02:16:33;12.63;;;6.22;;
75885;SDS011;64561;44.018;10.144;2023-12-28T02:19:14;8.68;;;6.35;;
75885;SDS011;64561;44.018;10.144;2023-12-28T02:21:56;13.98;;;6.97;;
75885;SDS011;64561;44.018;10.144;2023-12-28T02:24:26;11.02;;;7.20;;
75885;SDS011;64561;44.018;10.144;2023-12-28T02:26:53;9.52;;;7.05;;
75885;SDS011;64561;44.018;10.144;2023-12-28T02:29:21;11.23;;;6.60;;
75885;SDS011;64561;44.018;10.144;2023-12-28T02:31:53;9.32;;;6.45;;
75885;SDS011;64561;44.018;10.144;2023-12-28T02:34:29;9.77;;;7.28;;
75885;SDS011;64561;44.018;10.144;2023-12-28T02:37:04;11.40;;;6.95;;
75885;SDS011;64561;44.018;10.144;2023-12-28T02:39:32;10.80;;;7.25;;
75885;SDS011;64561;44.018;10.144;2023-12-28T02:42:00;11.75;;;7.97;;
75885;SDS011;64561;44.018;10.144;2023-12-28T02:44:27;12.27;;;7.68;;
75885;SDS011;64561;44.018;10.144;2023-12-28T02:46:54;10.45;;;7.93;;
75885;SDS011;64561;44.018;10.144;2023-12-28T02:49:21;11.95;;;7.32;;
75885;SDS011;64561;44.018;10.144;2023-12-28T02:51:49;10.80;;;7.07;;
75885;SDS011;64561;44.018;10.144;2023-12-28T02:54:17;13.38;;;6.90;;
75885;SDS011;64561;44.018;10.144;2023-12-28T02:56:44;11.32;;;7.00;;
75885;SDS011;64561;44.018;10.144;2023-12-28T02:59:11;10.10;;;6.38;;
75885;SDS011;64561;44.018;10.144;2023-12-28T03:01:38;10.35;;;7.10;;
75885;SDS011;64561;44.018;10.144;2023-12-28T03:04:06;11.63;;;6.45;;
75885;SDS011;64561;44.018;10.144;2023-12-28T03:06:36;10.57;;;5.88;;
75885;SDS011;64561;44.018;10.144;2023-12-28T03:09:05;9.93;;;5.85;;
75885;SDS011;64561;44.018;10.144;2023-12-28T03:11:32;10.00;;;5.63;;
75885;SDS011;64561;44.018;10.144;2023-12-28T03:14:00;7.10;;;5.40;;
75885;SDS011;64561;44.018;10.144;2023-12-28T03:16:28;9.02;;;5.78;;
75885;SDS011;64561;44.018;10.144;2023-12-28T03:19:00;11.02;;;5.65;;
75885;SDS011;64561;44.018;10.144;2023-12-28T03:21:27;10.32;;;6.03;;
75885;SDS011;64561;44.018;10.144;2023-12-28T03:23:55;8.98;;;5.60;;
75885;SDS011;64561;44.018;10.144;2023-12-28T03:26:22;8.38;;;5.22;;
75885;SDS011;64561;44.018;10.144;2023-12-28T03:28:49;7.57;;;4.80;;
75885;SDS011;64561;44.018;10.144;2023-12-28T03:31:17;9.20;;;5.82;;
75885;SDS011;64561;44.018;10.144;2023-12-28T03:33:44;8.10;;;5.20;;
75885;SDS011;64561;44.018;10.144;2023-12-28T03:36:19;7.60;;;5.53;;
75885;SDS011;64561;44.018;10.144;2023-12-28T03:38:47;9.60;;;5.25;;
75885;SDS011;64561;44.018;10.144;2023-12-28T03:41:18;10.38;;;6.03;;
75885;SDS011;64561;44.018;10.144;2023-12-28T03:43:46;8.98;;;4.80;;
75885;SDS011;64561;44.018;10.144;2023-12-28T03:46:15;9.95;;;5.07;;
75885;SDS011;64561;44.018;10.144;2023-12-28T03:48:42;7.72;;;4.50;;
75885;SDS011;64561;44.018;10.144;2023-12-28T03:51:13;9.63;;;4.90;;
75885;SDS011;64561;44.018;10.144;2023-12-28T03:53:42;8.52;;;5.40;;
75885;SDS011;64561;44.018;10.144;2023-12-28T03:56:26;6.22;;;4.82;;
75885;SDS011;64561;44.018;10.144;2023-12-28T03:58:54;7.82;;;5.10;;
75885;SDS011;64561;44.018;10.144;2023-12-28T04:01:22;7.47;;;5.38;;
75885;SDS011;64561;44.018;10.144;2023-12-28T04:03:50;7.57;;;4.90;;
75885;SDS011;64561;44.018;10.144;2023-12-28T04:06:18;8.63;;;5.38;;
75885;SDS011;64561;44.018;10.144;2023-12-28T04:08:45;8.05;;;5.40;;
75885;SDS011;64561;44.018;10.144;2023-12-28T04:11:12;6.93;;;5.18;;
75885;SDS011;64561;44.018;10.144;2023-12-28T04:13:40;9.75;;;5.30;;
75885;SDS011;64561;44.018;10.144;2023-12-28T04:16:07;7.28;;;4.97;;
75885;SDS011;64561;44.018;10.144;2023-12-28T04:18:37;7.90;;;5.53;;
75885;SDS011;64561;44.018;10.144;2023-12-28T04:21:07;10.15;;;5.53;;
75885;SDS011;64561;44.018;10.144;2023-12-28T04:23:36;10.32;;;6.65;;
75885;SDS011;64561;44.018;10.144;2023-12-28T04:26:05;10.15;;;5.63;;
75885;SDS011;64561;44.018;10.144;2023-12-28T04:28:32;13.15;;;7.30;;
75885;SDS011;64561;44.018;10.144;2023-12-28T04:31:05;7.80;;;6.22;;
75885;SDS011;64561;44.018;10.144;2023-12-28T04:33:33;10.30;;;6.72;;
75885;SDS011;64561;44.018;10.144;2023-12-28T04:36:02;17.02;;;8.85;;
75885;SDS011;64561;44.018;10.144;2023-12-28T04:38:33;13.77;;;8.98;;
75885;SDS011;64561;44.018;10.144;2023-12-28T04:41:00;12.30;;;8.73;;
75885;SDS011;64561;44.018;10.144;2023-12-28T04:43:28;13.63;;;8.10;;
75885;SDS011;64561;44.018;10.144;2023-12-28T04:46:01;13.15;;;7.43;;
75885;SDS011;64561;44.018;10.144;2023-12-28T04:48:30;9.48;;;6.60;;
75885;SDS011;64561;44.018;10.144;2023-12-28T04:51:02;10.55;;;6.60;;
75885;SDS011;64561;44.018;10.144;2023-12-28T04:53:30;10.48;;;6.20;;
75885;SDS011;64561;44.018;10.144;2023-12-28T04:55:57;15.82;;;6.57;;
75885;SDS011;64561;44.018;10.144;2023-12-28T04:58:24;8.77;;;5.43;;
75885;SDS011;64561;44.018;10.144;2023-12-28T05:00:51;10.27;;;5.60;;
75885;SDS011;64561;44.018;10.144;2023-12-28T05:03:19;7.75;;;5.45;;
75885;SDS011;64561;44.018;10.144;2023-12-28T05:05:46;9.25;;;5.40;;
75885;SDS011;64561;44.018;10.144;2023-12-28T05:08:15;9.85;;;5.65;;
75885;SDS011;64561;44.018;10.144;2023-12-28T05:10:42;8.73;;;5.25;;
75885;SDS011;64561;44.018;10.144;2023-12-28T05:13:12;7.68;;;4.75;;
75885;SDS011;64561;44.018;10.144;2023-12-28T05:15:39;9.48;;;5.75;;
75885;SDS011;64561;44.018;10.144;2023-12-28T05:18:06;8.07;;;5.47;;
75885;SDS011;64561;44.018;10.144;2023-12-28T05:20:35;8.77;;;5.40;;
75885;SDS011;64561;44.018;10.144;2023-12-28T05:23:02;9.02;;;6.25;;
75885;SDS011;64561;44.018;10.144;2023-12-28T05:25:30;7.70;;;5.13;;
75885;SDS011;64561;44.018;10.144;2023-12-28T05:27:58;9.07;;;5.25;;
75885;SDS011;64561;44.018;10.144;2023-12-28T05:30:27;10.02;;;5.65;;
75885;SDS011;64561;44.018;10.144;2023-12-28T05:32:54;9.93;;;5.97;;
75885;SDS011;64561;44.018;10.144;2023-12-28T05:35:21;9.77;;;5.93;;
75885;SDS011;64561;44.018;10.144;2023-12-28T05:37:49;8.65;;;5.75;;
75885;SDS011;64561;44.018;10.144;2023-12-28T05:40:16;10.40;;;5.53;;
75885;SDS011;64561;44.018;10.144;2023-12-28T05:42:43;8.93;;;5.45;;
75885;SDS011;64561;44.018;10.144;2023-12-28T05:45:11;10.95;;;5.30;;
75885;SDS011;64561;44.018;10.144;2023-12-28T05:47:39;10.32;;;5.47;;
75885;SDS011;64561;44.018;10.144;2023-12-28T05:50:06;8.70;;;5.25;;
75885;SDS011;64561;44.018;10.144;2023-12-28T05:52:33;8.85;;;5.22;;
75885;SDS011;64561;44.018;10.144;2023-12-28T05:55:00;10.30;;;5.80;;
75885;SDS011;64561;44.018;10.144;2023-12-28T05:57:28;9.38;;;5.35;;
75885;SDS011;64561;44.018;10.144;2023-12-28T05:59:58;8.27;;;4.72;;
75885;SDS011;64561;44.018;10.144;2023-12-28T06:02:25;8.75;;;5.07;;
75885;SDS011;64561;44.018;10.144;2023-12-28T06:04:53;8.70;;;4.50;;
75885;SDS011;64561;44.018;10.144;2023-12-28T06:07:21;9.20;;;5.78;;
75885;SDS011;64561;44.018;10.144;2023-12-28T06:09:48;7.72;;;5.47;;
75885;SDS011;64561;44.018;10.144;2023-12-28T06:12:15;8.40;;;4.88;;
75885;SDS011;64561;44.018;10.144;2023-12-28T06:14:43;8.80;;;5.63;;
75885;SDS011;64561;44.018;10.144;2023-12-28T06:17:10;10.13;;;6.82;;
75885;SDS011;64561;44.018;10.144;2023-12-28T06:19:37;8.88;;;6.40;;
75885;SDS011;64561;44.018;10.144;2023-12-28T06:22:04;9.38;;;6.00;;
75885;SDS011;64561;44.018;10.144;2023-12-28T06:24:31;9.05;;;6.32;;
75885;SDS011;64561;44.018;10.144;2023-12-28T06:26:59;9.77;;;6.80;;
75885;SDS011;64561;44.018;10.144;2023-12-28T06:29:27;9.43;;;6.32;;
75885;SDS011;64561;44.018;10.144;2023-12-28T06:31:54;9.10;;;6.00;;
75885;SDS011;64561;44.018;10.144;2023-12-28T06:34:21;11.88;;;6.20;;
75885;SDS011;64561;44.018;10.144;2023-12-28T06:36:49;12.82;;;6.35;;
75885;SDS011;64561;44.018;10.144;2023-12-28T06:39:16;11.93;;;6.78;;
75885;SDS011;64561;44.018;10.144;2023-12-28T06:41:46;13.90;;;5.20;;
75885;SDS011;64561;44.018;10.144;2023-12-28T06:44:15;7.63;;;4.60;;
75885;SDS011;64561;44.018;10.144;2023-12-28T06:46:42;8.68;;;4.68;;
75885;SDS011;64561;44.018;10.144;2023-12-28T06:49:09;8.27;;;5.15;;
75885;SDS011;64561;44.018;10.144;2023-12-28T06:51:37;6.53;;;4.15;;
75885;SDS011;64561;44.018;10.144;2023-12-28T06:54:04;7.65;;;4.90;;
75885;SDS011;64561;44.018;10.144;2023-12-28T06:56:31;7.93;;;4.38;;
75885;SDS011;64561;44.018;10.144;2023-12-28T06:58:59;9.43;;;4.97;;
75885;SDS011;64561;44.018;10.144;2023-12-28T07:01:26;9.10;;;5.00;;
75885;SDS011;64561;44.018;10.144;2023-12-28T07:03:53;12.13;;;6.20;;
75885;SDS011;64561;44.018;10.144;2023-12-28T07:06:20;18.55;;;8.77;;
75885;SDS011;64561;44.018;10.144;2023-12-28T07:08:47;19.55;;;9.95;;
75885;SDS011;64561;44.018;10.144;2023-12-28T07:11:15;12.10;;;8.00;;
75885;SDS011;64561;44.018;10.144;2023-12-28T07:13:42;15.55;;;7.13;;
75885;SDS011;64561;44.018;10.144;2023-12-28T07:16:09;13.65;;;7.18;;
75885;SDS011;64561;44.018;10.144;2023-12-28T07:18:37;13.13;;;7.05;;
75885;SDS011;64561;44.018;10.144;2023-12-28T07:21:04;8.68;;;5.75;;
75885;SDS011;64561;44.018;10.144;2023-12-28T07:23:33;8.90;;;5.80;;
75885;SDS011;64561;44.018;10.144;2023-12-28T07:26:00;12.93;;;6.30;;
75885;SDS011;64561;44.018;10.144;2023-12-28T07:28:28;13.25;;;6.30;;
75885;SDS011;64561;44.018;10.144;2023-12-28T07:30:55;9.18;;;5.25;;
75885;SDS011;64561;44.018;10.144;2023-12-28T07:33:22;10.00;;;5.93;;
75885;SDS011;64561;44.018;10.144;2023-12-28T07:35:50;9.10;;;4.47;;
75885;SDS011;64561;44.018;10.144;2023-12-28T07:38:17;8.02;;;5.47;;
75885;SDS011;64561;44.018;10.144;2023-12-28T07:40:44;10.63;;;5.70;;
75885;SDS011;64561;44.018;10.144;2023-12-28T07:43:11;8.60;;;5.25;;
75885;SDS011;64561;44.018;10.144;2023-12-28T07:45:39;8.57;;;5.82;;
75885;SDS011;64561;44.018;10.144;2023-12-28T07:48:08;9.05;;;5.30;;
75885;SDS011;64561;44.018;10.144;2023-12-28T07:50:36;8.05;;;5.50;;
75885;SDS011;64561;44.018;10.144;2023-12-28T07:53:03;8.35;;;5.10;;
75885;SDS011;64561;44.018;10.144;2023-12-28T07:55:30;7.25;;;5.00;;
75885;SDS011;64561;44.018;10.144;2023-12-28T07:57:57;9.75;;;5.40;;
75885;SDS011;64561;44.018;10.144;2023-12-28T08:00:25;10.13;;;5.78;;
75885;SDS011;64561;44.018;10.144;2023-12-28T08:02:52;6.28;;;4.93;;
75885;SDS011;64561;44.018;10.144;2023-12-28T08:05:19;9.65;;;5.20;;
75885;SDS011;64561;44.018;10.144;2023-12-28T08:07:46;7.90;;;5.13;;
75885;SDS011;64561;44.018;10.144;2023-12-28T08:10:14;6.38;;;4.78;;
75885;SDS011;64561;44.018;10.144;2023-12-28T08:12:41;7.30;;;4.60;;
75885;SDS011;64561;44.018;10.144;2023-12-28T08:15:10;9.13;;;6.18;;
75885;SDS011;64561;44.018;10.144;2023-12-28T08:17:38;15.13;;;8.10;;
75885;SDS011;64561;44.018;10.144;2023-12-28T08:20:05;15.85;;;9.82;;
75885;SDS011;64561;44.018;10.144;2023-12-28T08:22:33;17.23;;;9.95;;
75885;SDS011;64561;44.018;10.144;2023-12-28T08:25:00;24.20;;;11.35;;
75885;SDS011;64561;44.018;10.144;2023-12-28T08:27:28;19.88;;;11.15;;
75885;SDS011;64561;44.018;10.144;2023-12-28T08:29:55;18.10;;;11.02;;
75885;SDS011;64561;44.018;10.144;2023-12-28T08:32:22;17.38;;;10.73;;
75885;SDS011;64561;44.018;10.144;2023-12-28T08:34:50;17.90;;;10.52;;
75885;SDS011;64561;44.018;10.144;2023-12-28T08:37:17;21.08;;;10.95;;
75885;SDS011;64561;44.018;10.144;2023-12-28T08:39:45;19.00;;;10.63;;
75885;SDS011;64561;44.018;10.144;2023-12-28T08:42:14;20.25;;;11.60;;
75885;SDS011;64561;44.018;10.144;2023-12-28T08:44:42;19.88;;;12.20;;
75885;SDS011;64561;44.018;10.144;2023-12-28T08:47:12;23.55;;;13.57;;
75885;SDS011;64561;44.018;10.144;2023-12-28T08:49:39;27.92;;;15.00;;
75885;SDS011;64561;44.018;10.144;2023-12-28T08:52:07;26.42;;;16.65;;
75885;SDS011;64561;44.018;10.144;2023-12-28T08:54:35;32.42;;;18.98;;
75885;SDS011;64561;44.018;10.144;2023-12-28T08:57:02;36.17;;;20.85;;
75885;SDS011;64561;44.018;10.144;2023-12-28T08:59:29;39.65;;;21.23;;
75885;SDS011;64561;44.018;10.144;2023-12-28T09:01:56;39.95;;;22.83;;
75885;SDS011;64561;44.018;10.144;2023-12-28T09:04:24;38.33;;;20.52;;
75885;SDS011;64561;44.018;10.144;2023-12-28T09:06:51;36.60;;;20.80;;
75885;SDS011;64561;44.018;10.144;2023-12-28T09:09:18;30.33;;;19.85;;
75885;SDS011;64561;44.018;10.144;2023-12-28T09:11:45;32.80;;;19.08;;
75885;SDS011;64561;44.018;10.144;2023-12-28T09:14:13;29.27;;;17.23;;
75885;SDS011;64561;44.018;10.144;2023-12-28T09:16:40;35.67;;;19.83;;
75885;SDS011;64561;44.018;10.144;2023-12-28T09:19:09;32.92;;;20.10;;
75885;SDS011;64561;44.018;10.144;2023-12-28T09:21:36;32.45;;;19.50;;
75885;SDS011;64561;44.018;10.144;2023-12-28T09:24:03;29.88;;;18.45;;
75885;SDS011;64561;44.018;10.144;2023-12-28T09:26:31;27.25;;;17.50;;
75885;SDS011;64561;44.018;10.144;2023-12-28T09:28:59;27.15;;;18.83;;
75885;SDS011;64561;44.018;10.144;2023-12-28T09:31:26;33.10;;;21.75;;
75885;SDS011;64561;44.018;10.144;2023-12-28T09:33:54;30.17;;;19.50;;
75885;SDS011;64561;44.018;10.144;2023-12-28T09:36:21;38.13;;;23.10;;
75885;SDS011;64561;44.018;10.144;2023-12-28T09:38:48;43.25;;;25.98;;
75885;SDS011;64561;44.018;10.144;2023-12-28T09:41:18;57.55;;;31.05;;
75885;SDS011;64561;44.018;10.144;2023-12-28T09:43:54;58.60;;;31.58;;
75885;SDS011;64561;44.018;10.144;2023-12-28T09:46:25;52.85;;;28.92;;
75885;SDS011;64561;44.018;10.144;2023-12-28T09:48:56;40.13;;;23.55;;
75885;SDS011;64561;44.018;10.144;2023-12-28T09:51:24;42.25;;;23.00;;
75885;SDS011;64561;44.018;10.144;2023-12-28T09:53:53;37.55;;;22.88;;
75885;SDS011;64561;44.018;10.144;2023-12-28T09:56:21;48.15;;;25.58;;
75885;SDS011;64561;44.018;10.144;2023-12-28T09:58:48;40.08;;;23.38;;
75885;SDS011;64561;44.018;10.144;2023-12-28T10:01:18;42.83;;;25.33;;
75885;SDS011;64561;44.018;10.144;2023-12-28T10:03:48;41.13;;;23.85;;
75885;SDS011;64561;44.018;10.144;2023-12-28T10:06:21;33.70;;;20.60;;
75885;SDS011;64561;44.018;10.144;2023-12-28T10:08:49;35.58;;;22.15;;
75885;SDS011;64561;44.018;10.144;2023-12-28T10:11:19;26.00;;;18.13;;
75885;SDS011;64561;44.018;10.144;2023-12-28T10:13:48;21.05;;;13.40;;
75885;SDS011;64561;44.018;10.144;2023-12-28T10:16:16;17.27;;;10.90;;
75885;SDS011;64561;44.018;10.144;2023-12-28T10:18:44;21.02;;;12.05;;
75885;SDS011;64561;44.018;10.144;2023-12-28T10:21:12;16.90;;;9.32;;
75885;SDS011;64561;44.018;10.144;2023-12-28T10:23:44;11.07;;;6.90;;
75885;SDS011;64561;44.018;10.144;2023-12-28T10:26:23;13.55;;;6.32;;
75885;SDS011;64561;44.018;10.144;2023-12-28T10:29:00;12.38;;;5.80;;
75885;SDS011;64561;44.018;10.144;2023-12-28T10:31:29;10.80;;;5.72;;
75885;SDS011;64561;44.018;10.144;2023-12-28T10:34:00;18.23;;;12.70;;
75885;SDS011;64561;44.018;10.144;2023-12-28T10:36:32;18.00;;;12.35;;
75885;SDS011;64561;44.018;10.144;2023-12-28T10:39:03;26.15;;;16.65;;
75885;SDS011;64561;44.018;10.144;2023-12-28T10:41:34;40.25;;;25.23;;
75885;SDS011;64561;44.018;10.144;2023-12-28T10:44:04;97.28;;;50.30;;
75885;SDS011;64561;44.018;10.144;2023-12-28T10:46:39;82.32;;;44.03;;
75885;SDS011;64561;44.018;10.144;2023-12-28T10:51:41;36.22;;;19.35;;
75885;SDS011;64561;44.018;10.144;2023-12-28T10:57:23;32.67;;;16.73;;
75885;SDS011;64561;44.018;10.144;2023-12-28T11:02:44;18.35;;;10.70;;
75885;SDS011;64561;44.018;10.144;2023-12-28T11:05:15;23.48;;;13.27;;
75885;SDS011;64561;44.018;10.144;2023-12-28T11:07:44;23.35;;;12.98;;
75885;SDS011;64561;44.018;10.144;2023-12-28T11:10:14;23.02;;;14.93;;
75885;SDS011;64561;44.018;10.144;2023-12-28T11:12:43;21.48;;;13.10;;
75885;SDS011;64561;44.018;10.144;2023-12-28T11:15:11;30.20;;;16.13;;
75885;SDS011;64561;44.018;10.144;2023-12-28T11:17:40;24.55;;;14.55;;
75885;SDS011;64561;44.018;10.144;2023-12-28T11:20:09;21.58;;;12.98;;
75885;SDS011;64561;44.018;10.144;2023-12-28T11:22:41;14.55;;;10.32;;
75885;SDS011;64561;44.018;10.144;2023-12-28T11:25:18;14.00;;;8.38;;
75885;SDS011;64561;44.018;10.144;2023-12-28T11:27:46;12.30;;;6.88;;
75885;SDS011;64561;44.018;10.144;2023-12-28T11:30:14;9.98;;;6.75;;
75885;SDS011;64561;44.018;10.144;2023-12-28T11:32:41;12.07;;;7.22;;
75885;SDS011;64561;44.018;10.144;2023-12-28T11:35:11;10.93;;;6.38;;
75885;SDS011;64561;44.018;10.144;2023-12-28T11:37:44;10.55;;;6.00;;
75885;SDS011;64561;44.018;10.144;2023-12-28T11:40:19;11.73;;;7.55;;
75885;SDS011;64561;44.018;10.144;2023-12-28T11:42:49;12.38;;;6.43;;
75885;SDS011;64561;44.018;10.144;2023-12-28T11:45:18;10.35;;;6.93;;
75885;SDS011;64561;44.018;10.144;2023-12-28T11:47:46;10.15;;;6.63;;
75885;SDS011;64561;44.018;10.144;2023-12-28T11:50:16;10.65;;;6.40;;
75885;SDS011;64561;44.018;10.144;2023-12-28T11:52:43;9.80;;;6.55;;
75885;SDS011;64561;44.018;10.144;2023-12-28T11:55:22;7.72;;;5.35;;
75885;SDS011;64561;44.018;10.144;2023-12-28T11:57:53;10.38;;;5.53;;
75885;SDS011;64561;44.018;10.144;2023-12-28T12:00:22;8.25;;;5.15;;
75885;SDS011;64561;44.018;10.144;2023-12-28T12:02:54;10.65;;;5.35;;
75885;SDS011;64561;44.018;10.144;2023-12-28T12:05:23;6.65;;;5.07;;
75885;SDS011;64561;44.018;10.144;2023-12-28T12:07:51;11.75;;;6.00;;
75885;SDS011;64561;44.018;10.144;2023-12-28T12:10:19;11.30;;;6.20;;
75885;SDS011;64561;44.018;10.144;2023-12-28T12:12:50;10.52;;;6.82;;
75885;SDS011;64561;44.018;10.144;2023-12-28T12:17:48;10.98;;;6.13;;
75885;SDS011;64561;44.018;10.144;2023-12-28T12:20:19;9.40;;;6.35;;
75885;SDS011;64561;44.018;10.144;2023-12-28T12:22:58;7.45;;;5.32;;
75885;SDS011;64561;44.018;10.144;2023-12-28T12:25:26;10.65;;;5.85;;
75885;SDS011;64561;44.018;10.144;2023-12-28T12:27:58;10.07;;;6.03;;
75885;SDS011;64561;44.018;10.144;2023-12-28T12:30:26;10.00;;;6.13;;
75885;SDS011;64561;44.018;10.144;2023-12-28T12:32:53;13.35;;;7.07;;
75885;SDS011;64561;44.018;10.144;2023-12-28T12:35:21;10.57;;;6.95;;
75885;SDS011;64561;44.018;10.144;2023-12-28T12:37:48;11.43;;;7.10;;
75885;SDS011;64561;44.018;10.144;2023-12-28T12:40:17;14.00;;;7.20;;
75885;SDS011;64561;44.018;10.144;2023-12-28T12:42:51;12.65;;;8.45;;
75885;SDS011;64561;44.018;10.144;2023-12-28T12:45:22;16.95;;;10.43;;
75885;SDS011;64561;44.018;10.144;2023-12-28T12:47:51;16.60;;;9.48;;
75885;SDS011;64561;44.018;10.144;2023-12-28T12:50:20;11.85;;;6.57;;
75885;SDS011;64561;44.018;10.144;2023-12-28T12:52:48;14.57;;;7.25;;
75885;SDS011;64561;44.018;10.144;2023-12-28T12:55:17;11.05;;;7.28;;
75885;SDS011;64561;44.018;10.144;2023-12-28T12:57:45;19.52;;;9.13;;
75885;SDS011;64561;44.018;10.144;2023-12-28T13:00:12;13.18;;;9.32;;
75885;SDS011;64561;44.018;10.144;2023-12-28T13:02:40;16.13;;;9.30;;
75885;SDS011;64561;44.018;10.144;2023-12-28T13:05:09;16.23;;;9.43;;
75885;SDS011;64561;44.018;10.144;2023-12-28T13:07:40;14.98;;;9.75;;
75885;SDS011;64561;44.018;10.144;2023-12-28T13:10:11;14.15;;;8.75;;
75885;SDS011;64561;44.018;10.144;2023-12-28T13:12:38;14.75;;;8.98;;
75885;SDS011;64561;44.018;10.144;2023-12-28T13:15:06;16.63;;;9.43;;
75885;SDS011;64561;44.018;10.144;2023-12-28T13:17:38;14.70;;;9.30;;
75885;SDS011;64561;44.018;10.144;2023-12-28T13:20:08;27.17;;;15.50;;
75885;SDS011;64561;44.018;10.144;2023-12-28T13:22:42;23.17;;;16.52;;
75885;SDS011;64561;44.018;10.144;2023-12-28T13:25:09;24.73;;;15.32;;
75885;SDS011;64561;44.018;10.144;2023-12-28T13:27:37;20.98;;;12.90;;
75885;SDS011;64561;44.018;10.144;2023-12-28T13:30:08;22.50;;;14.35;;
75885;SDS011;64561;44.018;10.144;2023-12-28T13:32:36;22.00;;;13.60;;
75885;SDS011;64561;44.018;10.144;2023-12-28T13:35:06;22.63;;;14.20;;
75885;SDS011;64561;44.018;10.144;2023-12-28T13:37:36;19.90;;;13.38;;
75885;SDS011;64561;44.018;10.144;2023-12-28T13:40:05;21.65;;;14.65;;
75885;SDS011;64561;44.018;10.144;2023-12-28T13:42:33;24.58;;;13.75;;
75885;SDS011;64561;44.018;10.144;2023-12-28T13:45:02;19.10;;;12.40;;
75885;SDS011;64561;44.018;10.144;2023-12-28T13:47:30;25.70;;;13.77;;
75885;SDS011;64561;44.018;10.144;2023-12-28T13:49:57;29.85;;;15.90;;
75885;SDS011;64561;44.018;10.144;2023-12-28T13:52:25;32.28;;;19.08;;
75885;SDS011;64561;44.018;10.144;2023-12-28T13:54:52;29.13;;;17.45;;
75885;SDS011;64561;44.018;10.144;2023-12-28T13:57:22;27.05;;;16.13;;
75885;SDS011;64561;44.018;10.144;2023-12-28T13:59:49;27.85;;;15.38;;
75885;SDS011;64561;44.018;10.144;2023-12-28T14:02:16;21.23;;;13.75;;
75885;SDS011;64561;44.018;10.144;2023-12-28T14:04:44;18.58;;;11.43;;
75885;SDS011;64561;44.018;10.144;2023-12-28T14:07:13;18.20;;;10.85;;
75885;SDS011;64561;44.018;10.144;2023-12-28T14:09:41;16.23;;;10.32;;
75885;SDS011;64561;44.018;10.144;2023-12-28T14:12:08;15.70;;;10.45;;
75885;SDS011;64561;44.018;10.144;2023-12-28T14:14:37;18.10;;;9.68;;
75885;SDS011;64561;44.018;10.144;2023-12-28T14:17:06;21.02;;;11.88;;
75885;SDS011;64561;44.018;10.144;2023-12-28T14:19:34;17.50;;;9.60;;
75885;SDS011;64561;44.018;10.144;2023-12-28T14:22:02;15.18;;;10.10;;
75885;SDS011;64561;44.018;10.144;2023-12-28T14:24:30;14.55;;;9.15;;
75885;SDS011;64561;44.018;10.144;2023-12-28T14:26:58;13.43;;;8.73;;
75885;SDS011;64561;44.018;10.144;2023-12-28T14:29:26;12.52;;;9.68;;
75885;SDS011;64561;44.018;10.144;2023-12-28T14:34:40;15.60;;;10.18;;
75885;SDS011;64561;44.018;10.144;2023-12-28T14:37:11;17.83;;;10.45;;
75885;SDS011;64561;44.018;10.144;2023-12-28T14:39:39;17.08;;;11.23;;
75885;SDS011;64561;44.018;10.144;2023-12-28T14:42:07;18.02;;;11.27;;